createdAt,value
2023-09-29T00:00:51.678Z,12.56
2023-09-29T00:01:51.579Z,12.52
2023-09-29T00:02:51.631Z,12.60
2023-09-29T00:03:51.455Z,12.67
2023-09-29T00:04:51.341Z,12.67
2023-09-29T00:05:51.271Z,12.63
2023-09-29T00:06:51.174Z,12.63
2023-09-29T00:07:51.094Z,12.56
2023-09-29T00:08:51.038Z,12.55
2023-09-29T00:09:50.931Z,12.64
2023-09-29T00:10:50.855Z,12.60
2023-09-29T00:11:50.813Z,12.74
2023-09-29T00:12:50.696Z,12.78
2023-09-29T00:13:50.613Z,12.84
2023-09-29T00:14:50.554Z,12.82
2023-09-29T00:15:50.468Z,12.88
2023-09-29T00:16:50.379Z,12.94
2023-09-29T00:17:50.360Z,12.88
2023-09-29T00:18:50.219Z,12.96
2023-09-29T00:19:50.144Z,12.92
2023-09-29T00:20:50.077Z,12.86
2023-09-29T00:21:49.977Z,12.88
2023-09-29T00:22:49.902Z,12.92
2023-09-29T00:23:49.885Z,12.97
2023-09-29T00:24:49.771Z,12.89
2023-09-29T00:25:49.662Z,12.84
2023-09-29T00:26:49.695Z,12.77
2023-09-29T00:27:49.511Z,12.77
2023-09-29T00:28:49.422Z,12.64
2023-09-29T00:29:49.387Z,12.56
2023-09-29T00:30:49.269Z,12.45
2023-09-29T00:31:49.196Z,12.42
2023-09-29T00:32:49.221Z,12.42
2023-09-29T00:33:49.024Z,12.48
2023-09-29T00:34:48.951Z,12.41
2023-09-29T00:35:48.885Z,12.30
2023-09-29T00:36:48.789Z,12.31
2023-09-29T00:37:48.753Z,12.16
2023-09-29T00:38:48.656Z,12.16
2023-09-29T00:39:48.544Z,12.26
2023-09-29T00:40:48.508Z,12.24
2023-09-29T00:41:48.424Z,12.16
2023-09-29T00:42:48.312Z,12.19
2023-09-29T00:43:48.265Z,12.21
2023-09-29T00:44:48.223Z,12.21
2023-09-29T00:45:48.092Z,12.33
2023-09-29T00:46:47.993Z,12.27
2023-09-29T00:47:47.995Z,12.34
2023-09-29T00:48:47.831Z,12.41
2023-09-29T00:49:47.761Z,12.33
2023-09-29T00:50:47.712Z,12.34
2023-09-29T00:51:47.588Z,12.34
2023-09-29T00:52:47.516Z,12.30
2023-09-29T00:53:47.463Z,12.28
2023-09-29T00:54:47.535Z,12.41
2023-09-29T00:55:47.275Z,12.41
2023-09-29T00:56:47.256Z,12.34
2023-09-29T00:57:47.114Z,12.36
2023-09-29T00:58:47.034Z,12.42
2023-09-29T00:59:46.967Z,12.33
2023-09-29T01:00:47.033Z,12.39
2023-09-29T01:01:46.800Z,12.44
2023-09-29T01:02:46.831Z,12.27
2023-09-29T01:03:46.797Z,12.42
2023-09-29T01:04:46.561Z,12.26
2023-09-29T01:05:46.594Z,12.33
2023-09-29T01:06:46.400Z,12.23
2023-09-29T01:07:46.342Z,12.19
2023-09-29T01:08:46.269Z,12.19
2023-09-29T01:09:46.161Z,12.23
2023-09-29T01:10:46.084Z,12.15
2023-09-29T01:11:46.038Z,12.28
2023-09-29T01:12:45.921Z,12.28
2023-09-29T01:13:45.858Z,12.34
2023-09-29T01:14:45.801Z,12.31
2023-09-29T01:15:45.748Z,12.33
2023-09-29T01:16:45.607Z,12.41
2023-09-29T01:17:45.558Z,12.41
2023-09-29T01:18:45.463Z,12.39
2023-09-29T01:19:45.374Z,12.34
2023-09-29T01:20:45.589Z,12.42
2023-09-29T01:21:45.212Z,12.41
2023-09-29T01:22:45.134Z,12.46
2023-09-29T01:23:45.095Z,12.39
2023-09-29T01:24:44.982Z,12.39
2023-09-29T01:25:44.927Z,12.44
2023-09-29T01:26:44.827Z,12.46
2023-09-29T01:27:44.740Z,12.41
2023-09-29T01:28:44.650Z,12.36
2023-09-29T01:29:44.651Z,12.27
2023-09-29T01:30:44.670Z,12.26
2023-09-29T01:31:44.443Z,12.18
2023-09-29T01:32:44.377Z,12.15
2023-09-29T01:33:44.297Z,12.13
2023-09-29T01:34:44.181Z,12.11
2023-09-29T01:35:44.147Z,12.15
2023-09-29T01:36:44.029Z,12.05
2023-09-29T01:37:43.955Z,12.06
2023-09-29T01:38:43.946Z,11.98
2023-09-29T01:39:43.782Z,11.95
2023-09-29T01:40:43.694Z,11.95
2023-09-29T01:41:43.656Z,11.97
2023-09-29T01:42:43.549Z,12.03
2023-09-29T01:43:43.464Z,12.06
2023-09-29T01:44:43.388Z,12.11
2023-09-29T01:45:43.350Z,12.09
2023-09-29T01:46:43.228Z,12.08
2023-09-29T01:47:43.254Z,12.05
2023-09-29T01:48:43.127Z,12.06
2023-09-29T01:49:42.985Z,12.03
2023-09-29T01:50:42.911Z,12.06
2023-09-29T01:51:42.821Z,11.94
2023-09-29T01:52:42.750Z,11.94
2023-09-29T01:53:42.712Z,11.89
2023-09-29T01:54:42.583Z,11.90
2023-09-29T01:55:42.520Z,11.86
2023-09-29T01:56:42.503Z,11.93
2023-09-29T01:57:42.341Z,11.76
2023-09-29T01:58:42.265Z,11.60
2023-09-29T01:59:42.258Z,11.59
2023-09-29T02:00:42.114Z,11.57
2023-09-29T02:01:42.024Z,11.61
2023-09-29T02:02:42.040Z,11.51
2023-09-29T02:03:42.026Z,11.50
2023-09-29T02:04:41.784Z,11.49
2023-09-29T02:05:41.741Z,11.46
2023-09-29T02:06:41.649Z,11.39
2023-09-29T02:07:41.549Z,11.36
2023-09-29T02:08:41.517Z,11.32
2023-09-29T02:09:41.379Z,11.31
2023-09-29T02:10:41.304Z,11.32
2023-09-29T02:11:41.258Z,11.29
2023-09-29T02:12:41.137Z,11.36
2023-09-29T02:13:41.055Z,11.31
2023-09-29T02:14:40.990Z,11.28
2023-09-29T02:15:40.892Z,11.31
2023-09-29T02:16:40.812Z,11.21
2023-09-29T02:17:40.810Z,11.21
2023-09-29T02:18:40.826Z,11.16
2023-09-29T02:19:40.562Z,11.14
2023-09-29T02:20:40.538Z,11.00
2023-09-29T02:21:40.409Z,10.93
2023-09-29T02:22:40.326Z,10.84
2023-09-29T02:23:40.289Z,10.77
2023-09-29T02:24:40.170Z,10.77
2023-09-29T02:25:40.089Z,10.75
2023-09-29T02:26:40.052Z,10.71
2023-09-29T02:27:39.920Z,10.65
2023-09-29T02:28:39.842Z,10.71
2023-09-29T02:29:39.768Z,10.78
2023-09-29T02:30:39.684Z,10.74
2023-09-29T02:31:39.597Z,10.85
2023-09-29T02:32:39.538Z,10.85
2023-09-29T02:33:39.492Z,10.96
2023-09-29T02:34:39.354Z,10.85
2023-09-29T02:35:39.312Z,10.87
2023-09-29T02:36:39.223Z,10.92
2023-09-29T02:37:39.120Z,10.95
2023-09-29T02:38:39.078Z,11.02
2023-09-29T02:39:38.960Z,11.05
2023-09-29T02:40:38.879Z,11.03
2023-09-29T02:41:38.832Z,11.03
2023-09-29T02:42:38.709Z,11.14
2023-09-29T02:43:38.632Z,11.14
2023-09-29T02:44:38.562Z,11.10
2023-09-29T02:45:38.481Z,11.11
2023-09-29T02:46:38.431Z,11.05
2023-09-29T02:47:38.374Z,10.99
2023-09-29T02:48:38.293Z,11.02
2023-09-29T02:49:38.153Z,11.02
2023-09-29T02:50:38.130Z,10.98
2023-09-29T02:51:37.992Z,11.02
2023-09-29T02:52:37.911Z,10.99
2023-09-29T02:53:37.858Z,11.02
2023-09-29T02:54:37.749Z,11.02
2023-09-29T02:55:37.670Z,11.08
2023-09-29T02:56:37.644Z,11.08
2023-09-29T02:57:37.551Z,11.05
2023-09-29T02:58:37.433Z,11.11
2023-09-29T02:59:37.360Z,11.08
2023-09-29T03:00:37.299Z,11.00
2023-09-29T03:01:37.201Z,10.99
2023-09-29T03:02:37.177Z,11.00
2023-09-29T03:03:37.148Z,11.13
2023-09-29T03:04:36.945Z,11.06
2023-09-29T03:05:36.866Z,11.17
2023-09-29T03:06:36.786Z,11.06
2023-09-29T03:07:36.710Z,10.99
2023-09-29T03:08:36.673Z,10.92
2023-09-29T03:09:36.546Z,11.02
2023-09-29T03:10:36.459Z,10.98
2023-09-29T03:11:36.412Z,10.96
2023-09-29T03:12:36.314Z,10.99
2023-09-29T03:13:36.222Z,11.10
2023-09-29T03:14:36.159Z,11.11
2023-09-29T03:15:36.070Z,11.03
2023-09-29T03:16:36.002Z,11.14
2023-09-29T03:17:35.983Z,11.11
2023-09-29T03:18:35.900Z,11.17
2023-09-29T03:19:35.735Z,11.14
2023-09-29T03:20:35.693Z,11.21
2023-09-29T03:21:35.578Z,11.17
2023-09-29T03:22:35.504Z,11.06
2023-09-29T03:23:35.468Z,11.13
2023-09-29T03:24:35.335Z,11.13
2023-09-29T03:25:35.257Z,11.13
2023-09-29T03:26:35.206Z,11.10
2023-09-29T03:27:35.098Z,11.18
2023-09-29T03:28:35.019Z,11.20
2023-09-29T03:29:34.951Z,11.16
2023-09-29T03:30:34.909Z,11.08
2023-09-29T03:31:34.777Z,11.00
2023-09-29T03:32:34.732Z,10.88
2023-09-29T03:33:34.648Z,10.87
2023-09-29T03:34:34.531Z,10.81
2023-09-29T03:35:34.486Z,10.67
2023-09-29T03:36:34.372Z,10.65
2023-09-29T03:37:34.286Z,10.62
2023-09-29T03:38:34.216Z,10.69
2023-09-29T03:39:34.124Z,10.73
2023-09-29T03:40:34.055Z,10.65
2023-09-29T03:41:34.003Z,10.67
2023-09-29T03:42:33.901Z,10.63
2023-09-29T03:43:33.812Z,10.63
2023-09-29T03:44:33.760Z,10.53
2023-09-29T03:45:33.649Z,10.49
2023-09-29T03:46:33.616Z,10.56
2023-09-29T03:47:33.538Z,10.44
2023-09-29T03:48:33.507Z,10.46
2023-09-29T03:49:33.323Z,10.47
2023-09-29T03:50:33.270Z,10.43
2023-09-29T03:51:33.164Z,10.36
2023-09-29T03:52:33.085Z,10.37
2023-09-29T03:53:33.028Z,10.34
2023-09-29T03:54:32.920Z,10.40
2023-09-29T03:55:32.840Z,10.28
2023-09-29T03:56:32.802Z,10.46
2023-09-29T03:57:32.686Z,10.40
2023-09-29T03:58:32.606Z,10.40
2023-09-29T03:59:32.561Z,10.47
2023-09-29T04:00:32.446Z,10.55
2023-09-29T04:01:32.363Z,10.51
2023-09-29T04:02:32.323Z,10.56
2023-09-29T04:03:32.290Z,10.55
2023-09-29T04:04:32.133Z,10.58
2023-09-29T04:05:32.133Z,10.60
2023-09-29T04:06:32.087Z,10.58
2023-09-29T04:07:31.869Z,10.53
2023-09-29T04:08:31.822Z,10.51
2023-09-29T04:09:31.728Z,10.44
2023-09-29T04:10:31.634Z,10.46
2023-09-29T04:11:31.565Z,10.47
2023-09-29T04:12:31.477Z,10.41
2023-09-29T04:13:31.387Z,10.47
2023-09-29T04:14:34.526Z,10.43
2023-09-29T04:15:31.228Z,10.49
2023-09-29T04:16:31.187Z,10.49
2023-09-29T04:17:31.137Z,10.49
2023-09-29T04:18:31.035Z,10.56
2023-09-29T04:19:30.905Z,10.63
2023-09-29T04:20:30.837Z,10.60
2023-09-29T04:21:30.747Z,10.56
2023-09-29T04:22:30.674Z,10.63
2023-09-29T04:23:30.649Z,10.58
2023-09-29T04:24:30.509Z,10.56
2023-09-29T04:25:30.417Z,10.59
2023-09-29T04:26:30.394Z,10.55
2023-09-29T04:27:30.253Z,10.44
2023-09-29T04:28:30.177Z,10.40
2023-09-29T04:29:30.131Z,10.43
2023-09-29T04:30:30.046Z,10.43
2023-09-29T04:31:29.949Z,10.40
2023-09-29T04:32:29.913Z,10.49
2023-09-29T04:33:29.939Z,10.46
2023-09-29T04:34:29.701Z,10.53
2023-09-29T04:35:29.619Z,10.55
2023-09-29T04:36:29.529Z,10.56
2023-09-29T04:37:29.489Z,10.56
2023-09-29T04:38:29.381Z,10.40
2023-09-29T04:39:29.292Z,10.31
2023-09-29T04:40:29.210Z,10.28
2023-09-29T04:41:29.162Z,10.28
2023-09-29T04:42:29.059Z,10.25
2023-09-29T04:43:28.966Z,10.22
2023-09-29T04:44:28.959Z,10.08
2023-09-29T04:45:28.799Z,10.04
2023-09-29T04:46:28.736Z,9.92
2023-09-29T04:47:28.763Z,9.93
2023-09-29T04:48:28.638Z,10.01
2023-09-29T04:49:28.479Z,10.00
2023-09-29T04:50:28.571Z,10.04
2023-09-29T04:51:28.326Z,10.08
2023-09-29T04:52:28.242Z,10.08
2023-09-29T04:53:28.163Z,10.22
2023-09-29T04:54:28.073Z,10.22
2023-09-29T04:55:27.993Z,10.33
2023-09-29T04:56:27.917Z,10.46
2023-09-29T04:57:27.834Z,10.43
2023-09-29T04:58:27.759Z,10.51
2023-09-29T04:59:27.672Z,10.59
2023-09-29T05:00:27.658Z,10.58
2023-09-29T05:01:27.509Z,10.59
2023-09-29T05:02:27.473Z,10.43
2023-09-29T05:03:27.431Z,10.40
2023-09-29T05:04:27.326Z,10.34
2023-09-29T05:05:27.187Z,10.46
2023-09-29T05:06:27.116Z,10.43
2023-09-29T05:07:27.025Z,10.47
2023-09-29T05:08:26.950Z,10.43
2023-09-29T05:09:26.867Z,10.49
2023-09-29T05:10:26.791Z,10.36
2023-09-29T05:11:26.710Z,10.23
2023-09-29T05:12:26.621Z,10.21
2023-09-29T05:13:26.546Z,10.16
2023-09-29T05:14:26.461Z,10.11
2023-09-29T05:15:26.377Z,10.21
2023-09-29T05:16:26.331Z,10.23
2023-09-29T05:17:36.757Z,10.40
2023-09-29T05:18:26.193Z,10.44
2023-09-29T05:19:26.060Z,10.60
2023-09-29T05:20:25.983Z,10.51
2023-09-29T05:21:25.896Z,10.55
2023-09-29T05:22:25.819Z,10.59
2023-09-29T05:23:25.732Z,10.67
2023-09-29T05:24:25.648Z,10.60
2023-09-29T05:25:25.574Z,10.67
2023-09-29T05:26:25.502Z,10.71
2023-09-29T05:27:25.412Z,10.74
2023-09-29T05:28:25.333Z,10.67
2023-09-29T05:29:25.241Z,10.85
2023-09-29T05:30:25.198Z,10.75
2023-09-29T05:31:25.091Z,10.75
2023-09-29T05:32:25.015Z,10.77
2023-09-29T05:33:25.111Z,10.73
2023-09-29T05:34:24.850Z,10.69
2023-09-29T05:35:24.763Z,10.71
2023-09-29T05:36:24.683Z,10.71
2023-09-29T05:37:24.609Z,10.71
2023-09-29T05:38:24.533Z,10.60
2023-09-29T05:39:24.438Z,10.65
2023-09-29T05:40:24.362Z,10.63
2023-09-29T05:41:24.282Z,10.65
2023-09-29T05:43:24.214Z,10.63
2023-09-29T05:44:24.039Z,10.63
2023-09-29T05:45:23.952Z,10.60
2023-09-29T05:46:23.898Z,10.59
2023-09-29T05:47:23.789Z,10.62
2023-09-29T05:48:23.761Z,10.59
2023-09-29T05:49:23.631Z,10.66
2023-09-29T05:50:23.579Z,10.67
2023-09-29T05:51:23.465Z,10.67
2023-09-29T05:52:23.428Z,10.69
2023-09-29T05:53:23.314Z,10.67
2023-09-29T05:54:23.226Z,10.87
2023-09-29T05:55:23.143Z,10.75
2023-09-29T05:56:23.061Z,10.85
2023-09-29T05:57:22.980Z,10.92
2023-09-29T05:58:22.931Z,11.03
2023-09-29T05:59:22.819Z,11.05
2023-09-29T06:00:22.737Z,10.98
2023-09-29T06:01:22.674Z,11.05
2023-09-29T06:02:22.593Z,11.06
2023-09-29T06:03:22.564Z,11.08
2023-09-29T06:04:22.669Z,11.14
2023-09-29T06:05:22.325Z,11.17
2023-09-29T06:06:22.251Z,11.28
2023-09-29T06:07:22.174Z,11.31
2023-09-29T06:08:22.097Z,11.34
2023-09-29T06:09:22.049Z,11.34
2023-09-29T06:10:21.934Z,11.42
2023-09-29T06:11:21.863Z,11.56
2023-09-29T06:12:21.769Z,11.49
2023-09-29T06:13:21.689Z,11.51
2023-09-29T06:14:21.618Z,11.60
2023-09-29T06:15:21.545Z,11.59
2023-09-29T06:16:21.466Z,11.57
2023-09-29T06:17:21.366Z,11.69
2023-09-29T06:18:21.341Z,11.72
2023-09-29T06:19:21.225Z,11.78
2023-09-29T06:20:21.138Z,11.74
2023-09-29T06:21:21.039Z,11.79
2023-09-29T06:22:20.968Z,11.93
2023-09-29T06:23:20.888Z,11.87
2023-09-29T06:24:20.849Z,11.97
2023-09-29T06:25:20.717Z,11.97
2023-09-29T06:26:20.673Z,12.08
2023-09-29T06:27:20.590Z,12.09
2023-09-29T06:28:20.491Z,12.15
2023-09-29T06:29:20.403Z,12.24
2023-09-29T06:30:20.321Z,12.31
2023-09-29T06:31:20.308Z,12.41
2023-09-29T06:32:20.364Z,12.49
2023-09-29T06:33:20.140Z,12.45
2023-09-29T06:34:20.088Z,12.55
2023-09-29T06:35:19.915Z,12.61
2023-09-29T06:36:19.841Z,12.69
2023-09-29T06:37:19.765Z,12.82
2023-09-29T06:38:19.693Z,12.88
2023-09-29T06:39:19.601Z,12.97
2023-09-29T06:40:19.583Z,13.04
2023-09-29T06:41:19.440Z,13.15
2023-09-29T06:42:19.361Z,13.19
2023-09-29T06:43:19.277Z,13.29
2023-09-29T06:44:19.201Z,13.27
2023-09-29T06:45:19.123Z,13.37
2023-09-29T06:46:19.038Z,13.44
2023-09-29T06:47:18.951Z,13.59
2023-09-29T06:48:20.748Z,13.59
2023-09-29T06:49:18.835Z,13.83
2023-09-29T06:50:18.719Z,13.86
2023-09-29T06:51:18.635Z,14.01
2023-09-29T06:52:18.551Z,14.07
2023-09-29T06:53:18.482Z,14.02
2023-09-29T06:54:18.435Z,14.24
2023-09-29T06:55:18.321Z,14.24
2023-09-29T06:56:18.230Z,14.24
2023-09-29T06:57:18.242Z,14.38
2023-09-29T06:58:18.072Z,14.34
2023-09-29T06:59:18.003Z,14.36
2023-09-29T07:00:17.981Z,14.47
2023-09-29T07:01:17.855Z,14.54
2023-09-29T07:02:18.782Z,14.61
2023-09-29T07:03:17.767Z,14.69
2023-09-29T07:04:17.733Z,14.72
2023-09-29T07:05:17.524Z,14.85
2023-09-29T07:06:17.500Z,14.90
2023-09-29T07:07:17.355Z,15.02
2023-09-29T07:08:17.280Z,15.01
2023-09-29T07:09:17.287Z,15.06
2023-09-29T07:10:17.112Z,15.16
2023-09-29T07:11:17.040Z,15.16
2023-09-29T07:12:17.023Z,15.26
2023-09-29T07:13:16.889Z,15.30
2023-09-29T07:14:16.801Z,15.41
2023-09-29T07:15:16.769Z,15.45
2023-09-29T07:16:16.663Z,15.48
2023-09-29T07:17:16.568Z,15.52
2023-09-29T07:18:16.557Z,15.60
2023-09-29T07:19:16.401Z,15.67
2023-09-29T07:20:16.326Z,15.86
2023-09-29T07:21:16.295Z,15.85
2023-09-29T07:22:16.170Z,15.97
2023-09-29T07:23:16.084Z,16.07
2023-09-29T07:24:16.054Z,16.23
2023-09-29T07:25:15.928Z,16.37
2023-09-29T07:26:15.854Z,16.38
2023-09-29T07:27:15.860Z,16.42
2023-09-29T07:28:15.708Z,16.60
2023-09-29T07:29:15.609Z,16.73
2023-09-29T07:30:15.620Z,16.75
2023-09-29T07:31:15.473Z,16.95
2023-09-29T07:32:15.376Z,17.03
2023-09-29T07:33:15.329Z,17.18
2023-09-29T07:34:15.219Z,17.35
2023-09-29T07:35:15.157Z,17.50
2023-09-29T07:36:15.096Z,17.64
2023-09-29T07:37:14.979Z,17.76
2023-09-29T07:38:14.913Z,17.88
2023-09-29T07:39:14.992Z,17.91
2023-09-29T07:40:14.742Z,18.06
2023-09-29T07:41:14.675Z,18.19
2023-09-29T07:42:14.614Z,18.37
2023-09-29T07:43:14.506Z,18.42
2023-09-29T07:44:14.438Z,18.55
2023-09-29T07:45:14.401Z,18.68
2023-09-29T07:46:14.363Z,18.79
2023-09-29T07:47:14.206Z,18.83
2023-09-29T07:48:14.187Z,18.95
2023-09-29T07:49:14.040Z,18.99
2023-09-29T07:50:13.962Z,19.14
2023-09-29T07:51:13.938Z,19.20
2023-09-29T07:52:13.810Z,19.31
2023-09-29T07:53:13.729Z,19.31
2023-09-29T07:54:13.699Z,19.48
2023-09-29T07:55:13.618Z,19.63
2023-09-29T07:56:13.496Z,19.68
2023-09-29T07:57:13.469Z,19.72
2023-09-29T07:58:13.361Z,19.87
2023-09-29T07:59:13.271Z,19.93
2023-09-29T08:00:13.254Z,20.08
2023-09-29T08:01:13.120Z,20.26
2023-09-29T08:02:13.090Z,20.28
2023-09-29T08:03:13.139Z,20.43
2023-09-29T08:04:13.005Z,20.46
2023-09-29T08:05:12.810Z,20.59
2023-09-29T08:06:12.790Z,20.62
2023-09-29T08:07:12.649Z,20.65
2023-09-29T08:08:12.585Z,20.75
2023-09-29T08:09:12.560Z,21.01
2023-09-29T08:10:12.430Z,21.01
2023-09-29T08:11:12.347Z,20.99
2023-09-29T08:12:12.306Z,21.08
2023-09-29T08:13:12.190Z,21.19
2023-09-29T08:14:12.119Z,21.14
2023-09-29T08:15:12.106Z,21.14
2023-09-29T08:16:12.029Z,21.17
2023-09-29T08:17:11.883Z,21.17
2023-09-29T08:18:11.864Z,21.14
2023-09-29T08:19:11.726Z,21.17
2023-09-29T08:20:11.656Z,21.16
2023-09-29T08:21:11.596Z,21.35
2023-09-29T08:22:12.039Z,21.42
2023-09-29T08:23:11.428Z,21.46
2023-09-29T08:24:11.406Z,21.59
2023-09-29T08:25:11.284Z,21.82
2023-09-29T08:26:11.187Z,21.94
2023-09-29T08:27:11.171Z,22.07
2023-09-29T08:28:11.046Z,22.20
2023-09-29T08:29:10.967Z,22.39
2023-09-29T08:30:10.967Z,22.54
2023-09-29T08:31:10.918Z,22.62
2023-09-29T08:32:10.750Z,22.74
2023-09-29T08:33:20.909Z,22.94
2023-09-29T08:34:10.636Z,23.04
2023-09-29T08:35:10.520Z,23.20
2023-09-29T08:36:10.457Z,23.50
2023-09-29T08:37:10.360Z,23.63
2023-09-29T08:38:10.285Z,23.60
2023-09-29T08:39:10.262Z,23.56
2023-09-29T08:40:10.140Z,23.45
2023-09-29T08:41:10.069Z,23.26
2023-09-29T08:42:10.048Z,22.99
2023-09-29T08:43:09.905Z,22.93
2023-09-29T08:44:09.922Z,22.71
2023-09-29T08:45:09.803Z,22.62
2023-09-29T08:46:09.719Z,22.57
2023-09-29T08:47:09.613Z,22.52
2023-09-29T08:48:09.571Z,22.57
2023-09-29T08:49:09.462Z,22.41
2023-09-29T08:50:09.384Z,22.49
2023-09-29T08:51:09.335Z,22.38
2023-09-29T08:52:09.235Z,22.24
2023-09-29T08:53:09.162Z,22.39
2023-09-29T08:54:09.192Z,22.32
2023-09-29T08:55:09.012Z,22.32
2023-09-29T08:56:08.941Z,22.34
2023-09-29T08:57:08.897Z,22.39
2023-09-29T08:58:08.803Z,22.38
2023-09-29T08:59:08.709Z,22.34
2023-09-29T09:00:08.716Z,22.24
2023-09-29T09:01:08.565Z,22.22
2023-09-29T09:02:08.538Z,22.19
2023-09-29T09:03:08.540Z,22.10
2023-09-29T09:04:08.545Z,22.17
2023-09-29T09:05:08.269Z,22.15
2023-09-29T09:06:08.204Z,22.07
2023-09-29T09:07:08.129Z,22.02
2023-09-29T09:08:08.041Z,22.10
2023-09-29T09:09:07.974Z,21.97
2023-09-29T09:10:13.009Z,22.05
2023-09-29T09:11:07.819Z,22.00
2023-09-29T09:12:07.856Z,21.95
2023-09-29T09:13:07.702Z,22.05
2023-09-29T09:14:07.587Z,22.05
2023-09-29T09:15:09.528Z,21.98
2023-09-29T09:16:07.499Z,22.04
2023-09-29T09:17:07.363Z,22.13
2023-09-29T09:18:07.339Z,21.94
2023-09-29T09:19:07.266Z,21.94
2023-09-29T09:20:07.149Z,22.00
2023-09-29T09:21:07.108Z,22.04
2023-09-29T09:22:06.994Z,22.01
2023-09-29T09:23:06.918Z,22.02
2023-09-29T09:24:06.858Z,21.97
2023-09-29T09:25:06.771Z,22.13
2023-09-29T09:26:06.696Z,22.15
2023-09-29T09:27:06.631Z,22.17
2023-09-29T09:28:06.596Z,22.28
2023-09-29T09:29:06.473Z,22.35
2023-09-29T09:30:06.420Z,22.42
2023-09-29T09:31:06.354Z,22.68
2023-09-29T09:32:06.237Z,22.77
2023-09-29T09:33:06.466Z,22.89
2023-09-29T09:34:06.090Z,23.00
2023-09-29T09:35:06.017Z,23.12
2023-09-29T09:36:05.968Z,23.09
2023-09-29T09:37:05.864Z,23.18
2023-09-29T09:38:05.906Z,23.18
2023-09-29T09:39:05.798Z,23.15
2023-09-29T09:40:05.688Z,23.27
2023-09-29T09:41:05.574Z,23.35
2023-09-29T09:42:05.517Z,23.40
2023-09-29T09:43:05.428Z,23.52
2023-09-29T09:44:05.349Z,23.71
2023-09-29T09:45:05.302Z,23.80
2023-09-29T09:46:05.220Z,23.92
2023-09-29T09:47:05.121Z,24.04
2023-09-29T09:48:06.014Z,24.04
2023-09-29T09:49:04.980Z,24.15
2023-09-29T09:50:04.909Z,24.19
2023-09-29T09:51:04.843Z,24.10
2023-09-29T09:52:04.760Z,23.95
2023-09-29T09:53:04.682Z,23.80
2023-09-29T09:54:04.656Z,23.71
2023-09-29T09:55:04.531Z,23.63
2023-09-29T09:56:04.458Z,23.56
2023-09-29T09:57:04.413Z,23.63
2023-09-29T09:58:04.306Z,23.64
2023-09-29T09:59:04.231Z,23.60
2023-09-29T10:00:04.203Z,23.60
2023-09-29T10:01:04.087Z,23.61
2023-09-29T10:02:04.092Z,23.67
2023-09-29T10:03:04.000Z,23.63
2023-09-29T10:04:04.031Z,23.78
2023-09-29T10:05:03.798Z,23.70
2023-09-29T10:06:03.796Z,23.78
2023-09-29T10:07:03.645Z,23.90
2023-09-29T10:08:03.573Z,23.87
2023-09-29T10:09:03.510Z,24.05
2023-09-29T10:10:03.421Z,24.11
2023-09-29T10:11:03.345Z,24.19
2023-09-29T10:12:03.318Z,24.12
2023-09-29T10:13:03.216Z,24.19
2023-09-29T10:14:03.122Z,24.27
2023-09-29T10:15:03.073Z,24.25
2023-09-29T10:16:02.988Z,24.32
2023-09-29T10:17:02.907Z,24.29
2023-09-29T10:18:02.901Z,24.40
2023-09-29T10:19:02.757Z,24.41
2023-09-29T10:20:02.688Z,24.50
2023-09-29T10:21:02.690Z,24.40
2023-09-29T10:22:02.540Z,24.52
2023-09-29T10:23:02.467Z,24.53
2023-09-29T10:24:02.544Z,24.38
2023-09-29T10:25:02.311Z,24.54
2023-09-29T10:26:02.241Z,24.41
2023-09-29T10:27:02.215Z,24.54
2023-09-29T10:28:02.104Z,24.57
2023-09-29T10:29:02.176Z,24.54
2023-09-29T10:30:02.011Z,24.53
2023-09-29T10:31:01.873Z,24.54
2023-09-29T10:32:01.853Z,24.59
2023-09-29T10:33:01.762Z,24.62
2023-09-29T10:34:01.860Z,24.56
2023-09-29T10:35:01.580Z,24.57
2023-09-29T10:36:01.583Z,24.64
2023-09-29T10:37:01.435Z,24.67
2023-09-29T10:38:01.353Z,24.60
2023-09-29T10:39:01.347Z,24.73
2023-09-29T10:40:01.212Z,24.71
2023-09-29T10:41:04.328Z,24.85
2023-09-29T10:42:01.136Z,24.94
2023-09-29T10:43:00.993Z,24.85
2023-09-29T10:44:00.929Z,24.97
2023-09-29T10:45:00.863Z,25.02
2023-09-29T10:46:00.809Z,25.15
2023-09-29T10:47:01.632Z,25.13
2023-09-29T10:48:00.887Z,25.13
2023-09-29T10:49:00.746Z,25.20
2023-09-29T10:50:00.483Z,25.22
2023-09-29T10:51:00.446Z,25.38
2023-09-29T10:52:00.329Z,25.38
2023-09-29T10:53:00.265Z,25.32
2023-09-29T10:54:00.286Z,25.41
2023-09-29T10:55:00.174Z,25.41
2023-09-29T10:56:00.044Z,25.50
2023-09-29T10:56:59.996Z,25.41
2023-09-29T10:57:59.900Z,25.41
2023-09-29T10:58:59.912Z,25.46
2023-09-29T10:59:59.764Z,25.59
2023-09-29T11:00:59.686Z,25.55
2023-09-29T11:01:59.615Z,25.60
2023-09-29T11:02:59.641Z,25.59
2023-09-29T11:03:59.804Z,25.49
2023-09-29T11:04:59.398Z,25.41
2023-09-29T11:05:59.444Z,25.45
2023-09-29T11:07:00.045Z,25.50
2023-09-29T11:07:59.182Z,25.41
2023-09-29T11:08:59.136Z,25.42
2023-09-29T11:09:59.027Z,25.40
2023-09-29T11:10:58.953Z,25.38
2023-09-29T11:11:58.892Z,25.19
2023-09-29T11:12:58.809Z,25.22
2023-09-29T11:13:58.918Z,25.25
2023-09-29T11:14:58.694Z,25.31
2023-09-29T11:15:58.594Z,25.28
2023-09-29T11:16:58.726Z,25.19
2023-09-29T11:17:58.495Z,25.28
2023-09-29T11:18:58.415Z,25.27
2023-09-29T11:19:58.302Z,25.32
2023-09-29T11:20:58.289Z,25.40
2023-09-29T11:21:58.152Z,25.37
2023-09-29T11:22:58.076Z,25.31
2023-09-29T11:23:58.314Z,25.42
2023-09-29T11:24:57.939Z,25.46
2023-09-29T11:25:57.900Z,25.40
2023-09-29T11:26:57.810Z,25.41
2023-09-29T11:27:57.725Z,25.46
2023-09-29T11:28:57.649Z,25.38
2023-09-29T11:29:57.649Z,25.62
2023-09-29T11:30:57.496Z,25.60
2023-09-29T11:31:57.499Z,25.65
2023-09-29T11:32:57.384Z,25.70
2023-09-29T11:33:57.512Z,25.70
2023-09-29T11:34:57.210Z,25.70
2023-09-29T11:36:06.196Z,25.68
2023-09-29T11:36:57.068Z,25.75
2023-09-29T11:37:56.997Z,25.79
2023-09-29T11:38:57.021Z,25.86
2023-09-29T11:39:56.847Z,25.89
2023-09-29T11:40:56.788Z,25.87
2023-09-29T11:41:56.735Z,25.93
2023-09-29T11:42:56.679Z,26.01
2023-09-29T11:43:56.790Z,25.92
2023-09-29T11:44:56.518Z,25.96
2023-09-29T11:45:56.453Z,25.97
2023-09-29T11:46:56.345Z,25.93
2023-09-29T11:47:56.367Z,25.93
2023-09-29T11:48:56.202Z,25.93
2023-09-29T11:49:56.134Z,25.96
2023-09-29T11:50:56.084Z,25.94
2023-09-29T11:51:55.983Z,25.83
2023-09-29T11:52:55.914Z,25.87
2023-09-29T11:53:56.133Z,25.67
2023-09-29T11:54:55.772Z,25.68
2023-09-29T11:55:55.700Z,25.64
2023-09-29T11:56:55.641Z,25.75
2023-09-29T11:57:55.555Z,25.72
2023-09-29T11:58:55.492Z,25.78
2023-09-29T11:59:55.489Z,25.84
2023-09-29T12:00:55.334Z,25.86
2023-09-29T12:01:55.314Z,25.84
2023-09-29T12:02:55.281Z,25.87
2023-09-29T12:03:55.436Z,25.90
2023-09-29T12:04:55.128Z,25.86
2023-09-29T12:05:55.011Z,25.87
2023-09-29T12:06:54.907Z,25.97
2023-09-29T12:07:54.832Z,25.93
2023-09-29T12:08:54.768Z,25.94
2023-09-29T12:09:54.687Z,26.04
2023-09-29T12:10:54.632Z,26.09
2023-09-29T12:11:54.613Z,26.09
2023-09-29T12:12:54.517Z,26.11
2023-09-29T12:13:54.577Z,26.09
2023-09-29T12:14:54.357Z,26.23
2023-09-29T12:15:54.279Z,26.15
2023-09-29T12:16:54.256Z,26.24
2023-09-29T12:17:54.188Z,26.28
2023-09-29T12:18:54.054Z,26.21
2023-09-29T12:19:53.970Z,26.30
2023-09-29T12:20:53.928Z,26.35
2023-09-29T12:21:53.822Z,26.46
2023-09-29T12:22:53.750Z,26.58
2023-09-29T12:23:53.786Z,26.58
2023-09-29T12:24:53.600Z,26.77
2023-09-29T12:25:53.544Z,26.87
2023-09-29T12:26:53.646Z,26.98
2023-09-29T12:27:53.578Z,26.95
2023-09-29T12:28:53.315Z,27.12
2023-09-29T12:29:53.270Z,27.12
2023-09-29T12:30:53.173Z,27.19
2023-09-29T12:31:53.161Z,27.13
2023-09-29T12:32:53.082Z,27.21
2023-09-29T12:33:52.993Z,27.29
2023-09-29T12:34:52.886Z,27.14
2023-09-29T12:35:52.896Z,27.09
2023-09-29T12:36:52.904Z,27.08
2023-09-29T12:37:52.677Z,27.13
2023-09-29T12:38:52.644Z,27.17
2023-09-29T12:39:52.744Z,27.17
2023-09-29T12:40:52.456Z,27.16
2023-09-29T12:41:52.419Z,27.20
2023-09-29T12:42:52.312Z,27.12
2023-09-29T12:43:52.257Z,26.99
2023-09-29T12:44:52.257Z,26.95
2023-09-29T12:45:52.114Z,27.01
2023-09-29T12:46:53.729Z,27.09
2023-09-29T12:47:52.142Z,27.16
2023-09-29T12:48:51.904Z,26.98
2023-09-29T12:49:51.841Z,26.94
2023-09-29T12:50:51.868Z,27.05
2023-09-29T12:52:00.655Z,27.16
2023-09-29T12:52:51.604Z,27.24